sensor_id;sensor_type;location;lat;lon;timestamp;P1;durP1;ratioP1;P2;durP2;ratioP2
38023;SDS011;23834;48.080;11.682;2023-12-22T00:00:56;0.97;;;0.40;;
38023;SDS011;23834;48.080;11.682;2023-12-22T00:03:21;0.50;;;0.40;;
38023;SDS011;23834;48.080;11.682;2023-12-22T00:05:47;0.50;;;0.40;;
38023;SDS011;23834;48.080;11.682;2023-12-22T00:08:12;0.77;;;0.47;;
38023;SDS011;23834;48.080;11.682;2023-12-22T00:10:37;0.50;;;0.30;;
38023;SDS011;23834;48.080;11.682;2023-12-22T00:13:02;0.80;;;0.40;;
38023;SDS011;23834;48.080;11.682;2023-12-22T00:15:27;0.50;;;0.40;;
38023;SDS011;23834;48.080;11.682;2023-12-22T00:17:52;0.53;;;0.43;;
38023;SDS011;23834;48.080;11.682;2023-12-22T00:20:18;0.60;;;0.40;;
38023;SDS011;23834;48.080;11.682;2023-12-22T00:22:44;1.60;;;0.37;;
38023;SDS011;23834;48.080;11.682;2023-12-22T00:25:09;0.60;;;0.40;;
38023;SDS011;23834;48.080;11.682;2023-12-22T00:27:34;0.70;;;0.43;;
38023;SDS011;23834;48.080;11.682;2023-12-22T00:30:00;0.50;;;0.33;;
38023;SDS011;23834;48.080;11.682;2023-12-22T00:32:25;0.80;;;0.40;;
38023;SDS011;23834;48.080;11.682;2023-12-22T00:34:50;0.77;;;0.47;;
38023;SDS011;23834;48.080;11.682;2023-12-22T00:37:15;0.80;;;0.40;;
38023;SDS011;23834;48.080;11.682;2023-12-22T00:39:41;0.50;;;0.40;;
38023;SDS011;23834;48.080;11.682;2023-12-22T00:42:06;0.97;;;0.60;;
38023;SDS011;23834;48.080;11.682;2023-12-22T00:44:31;1.00;;;0.40;;
38023;SDS011;23834;48.080;11.682;2023-12-22T00:46:56;0.40;;;0.30;;
38023;SDS011;23834;48.080;11.682;2023-12-22T00:49:21;0.50;;;0.40;;
38023;SDS011;23834;48.080;11.682;2023-12-22T00:51:47;0.40;;;0.40;;
38023;SDS011;23834;48.080;11.682;2023-12-22T00:54:12;0.90;;;0.33;;
38023;SDS011;23834;48.080;11.682;2023-12-22T00:56:37;1.13;;;0.50;;
38023;SDS011;23834;48.080;11.682;2023-12-22T00:59:02;0.47;;;0.40;;
38023;SDS011;23834;48.080;11.682;2023-12-22T01:01:27;0.43;;;0.40;;
38023;SDS011;23834;48.080;11.682;2023-12-22T01:03:53;0.53;;;0.50;;
38023;SDS011;23834;48.080;11.682;2023-12-22T01:06:18;0.97;;;0.40;;
38023;SDS011;23834;48.080;11.682;2023-12-22T01:08:43;0.83;;;0.50;;
38023;SDS011;23834;48.080;11.682;2023-12-22T01:11:09;0.87;;;0.40;;
38023;SDS011;23834;48.080;11.682;2023-12-22T01:13:34;0.50;;;0.30;;
38023;SDS011;23834;48.080;11.682;2023-12-22T01:15:59;1.03;;;0.50;;
38023;SDS011;23834;48.080;11.682;2023-12-22T01:18:24;0.50;;;0.30;;
38023;SDS011;23834;48.080;11.682;2023-12-22T01:20:53;0.80;;;0.40;;
38023;SDS011;23834;48.080;11.682;2023-12-22T01:23:19;0.97;;;0.30;;
38023;SDS011;23834;48.080;11.682;2023-12-22T01:25:44;0.50;;;0.30;;
38023;SDS011;23834;48.080;11.682;2023-12-22T01:28:09;0.47;;;0.30;;
38023;SDS011;23834;48.080;11.682;2023-12-22T01:30:34;0.50;;;0.30;;
38023;SDS011;23834;48.080;11.682;2023-12-22T01:33:00;0.70;;;0.30;;
38023;SDS011;23834;48.080;11.682;2023-12-22T01:35:25;0.70;;;0.30;;
38023;SDS011;23834;48.080;11.682;2023-12-22T01:37:50;0.63;;;0.30;;
38023;SDS011;23834;48.080;11.682;2023-12-22T01:40:16;0.50;;;0.30;;
38023;SDS011;23834;48.080;11.682;2023-12-22T01:42:41;0.50;;;0.30;;
38023;SDS011;23834;48.080;11.682;2023-12-22T01:45:07;0.60;;;0.43;;
38023;SDS011;23834;48.080;11.682;2023-12-22T01:47:32;0.70;;;0.40;;
38023;SDS011;23834;48.080;11.682;2023-12-22T01:49:58;1.07;;;0.40;;
38023;SDS011;23834;48.080;11.682;2023-12-22T01:52:24;0.73;;;0.60;;
38023;SDS011;23834;48.080;11.682;2023-12-22T01:54:49;0.40;;;0.30;;
38023;SDS011;23834;48.080;11.682;2023-12-22T01:57:15;0.50;;;0.30;;
38023;SDS011;23834;48.080;11.682;2023-12-22T01:59:42;0.50;;;0.30;;
38023;SDS011;23834;48.080;11.682;2023-12-22T02:02:07;0.50;;;0.40;;
38023;SDS011;23834;48.080;11.682;2023-12-22T02:04:33;0.60;;;0.40;;
38023;SDS011;23834;48.080;11.682;2023-12-22T02:06:58;0.50;;;0.30;;
38023;SDS011;23834;48.080;11.682;2023-12-22T02:09:25;0.50;;;0.30;;
38023;SDS011;23834;48.080;11.682;2023-12-22T02:11:50;0.60;;;0.40;;
38023;SDS011;23834;48.080;11.682;2023-12-22T02:14:16;0.40;;;0.30;;
38023;SDS011;23834;48.080;11.682;2023-12-22T02:19:21;0.50;;;0.40;;
38023;SDS011;23834;48.080;11.682;2023-12-22T02:22:03;0.50;;;0.40;;
38023;SDS011;23834;48.080;11.682;2023-12-22T02:24:29;0.50;;;0.40;;
38023;SDS011;23834;48.080;11.682;2023-12-22T02:26:55;0.50;;;0.37;;
38023;SDS011;23834;48.080;11.682;2023-12-22T02:29:22;0.50;;;0.30;;
38023;SDS011;23834;48.080;11.682;2023-12-22T02:31:48;0.87;;;0.50;;
38023;SDS011;23834;48.080;11.682;2023-12-22T02:34:18;1.57;;;0.30;;
38023;SDS011;23834;48.080;11.682;2023-12-22T02:36:44;0.50;;;0.30;;
38023;SDS011;23834;48.080;11.682;2023-12-22T02:39:09;0.50;;;0.40;;
38023;SDS011;23834;48.080;11.682;2023-12-22T02:41:35;0.50;;;0.30;;
38023;SDS011;23834;48.080;11.682;2023-12-22T02:44:00;0.60;;;0.30;;
38023;SDS011;23834;48.080;11.682;2023-12-22T02:46:26;0.40;;;0.30;;
38023;SDS011;23834;48.080;11.682;2023-12-22T02:48:51;0.50;;;0.30;;
38023;SDS011;23834;48.080;11.682;2023-12-22T02:51:16;1.27;;;0.40;;
38023;SDS011;23834;48.080;11.682;2023-12-22T02:53:41;0.40;;;0.30;;
38023;SDS011;23834;48.080;11.682;2023-12-22T02:56:06;0.50;;;0.40;;
38023;SDS011;23834;48.080;11.682;2023-12-22T02:58:32;0.40;;;0.30;;
38023;SDS011;23834;48.080;11.682;2023-12-22T03:00:57;0.57;;;0.33;;
38023;SDS011;23834;48.080;11.682;2023-12-22T03:03:22;0.83;;;0.43;;
38023;SDS011;23834;48.080;11.682;2023-12-22T03:05:47;0.40;;;0.30;;
38023;SDS011;23834;48.080;11.682;2023-12-22T03:08:12;0.40;;;0.30;;
38023;SDS011;23834;48.080;11.682;2023-12-22T03:10:37;0.50;;;0.30;;
38023;SDS011;23834;48.080;11.682;2023-12-22T03:13:03;2.23;;;0.30;;
38023;SDS011;23834;48.080;11.682;2023-12-22T03:15:28;0.40;;;0.30;;
38023;SDS011;23834;48.080;11.682;2023-12-22T03:17:53;0.80;;;0.40;;
38023;SDS011;23834;48.080;11.682;2023-12-22T03:20:18;0.40;;;0.30;;
38023;SDS011;23834;48.080;11.682;2023-12-22T03:22:43;0.60;;;0.30;;
38023;SDS011;23834;48.080;11.682;2023-12-22T03:25:09;0.50;;;0.30;;
38023;SDS011;23834;48.080;11.682;2023-12-22T03:27:34;0.50;;;0.30;;
38023;SDS011;23834;48.080;11.682;2023-12-22T03:29:59;0.60;;;0.30;;
38023;SDS011;23834;48.080;11.682;2023-12-22T03:32:24;0.40;;;0.30;;
38023;SDS011;23834;48.080;11.682;2023-12-22T03:34:49;0.50;;;0.30;;
38023;SDS011;23834;48.080;11.682;2023-12-22T03:37:14;0.57;;;0.30;;
38023;SDS011;23834;48.080;11.682;2023-12-22T03:39:40;0.40;;;0.30;;
38023;SDS011;23834;48.080;11.682;2023-12-22T03:42:05;0.40;;;0.30;;
38023;SDS011;23834;48.080;11.682;2023-12-22T03:44:30;0.40;;;0.30;;
38023;SDS011;23834;48.080;11.682;2023-12-22T03:46:55;0.40;;;0.30;;
38023;SDS011;23834;48.080;11.682;2023-12-22T03:49:21;0.40;;;0.30;;
38023;SDS011;23834;48.080;11.682;2023-12-22T03:51:46;0.50;;;0.30;;
38023;SDS011;23834;48.080;11.682;2023-12-22T03:54:11;0.40;;;0.30;;
38023;SDS011;23834;48.080;11.682;2023-12-22T03:56:36;0.90;;;0.30;;
38023;SDS011;23834;48.080;11.682;2023-12-22T03:59:02;0.40;;;0.30;;
38023;SDS011;23834;48.080;11.682;2023-12-22T04:01:27;0.40;;;0.30;;
38023;SDS011;23834;48.080;11.682;2023-12-22T04:03:52;0.40;;;0.30;;
38023;SDS011;23834;48.080;11.682;2023-12-22T04:06:17;0.40;;;0.30;;
38023;SDS011;23834;48.080;11.682;2023-12-22T04:08:42;0.50;;;0.30;;
38023;SDS011;23834;48.080;11.682;2023-12-22T04:11:08;0.80;;;0.30;;
38023;SDS011;23834;48.080;11.682;2023-12-22T04:13:33;0.50;;;0.30;;
38023;SDS011;23834;48.080;11.682;2023-12-22T04:15:58;0.40;;;0.30;;
38023;SDS011;23834;48.080;11.682;2023-12-22T04:18:23;0.50;;;0.30;;
38023;SDS011;23834;48.080;11.682;2023-12-22T04:20:48;2.13;;;0.30;;
38023;SDS011;23834;48.080;11.682;2023-12-22T04:23:16;0.60;;;0.30;;
38023;SDS011;23834;48.080;11.682;2023-12-22T04:25:41;0.40;;;0.30;;
38023;SDS011;23834;48.080;11.682;2023-12-22T04:28:07;0.60;;;0.60;;
38023;SDS011;23834;48.080;11.682;2023-12-22T04:30:32;0.40;;;0.30;;
38023;SDS011;23834;48.080;11.682;2023-12-22T04:32:57;0.40;;;0.30;;
38023;SDS011;23834;48.080;11.682;2023-12-22T04:35:22;0.40;;;0.30;;
38023;SDS011;23834;48.080;11.682;2023-12-22T04:37:47;0.40;;;0.30;;
38023;SDS011;23834;48.080;11.682;2023-12-22T04:40:13;0.73;;;0.30;;
38023;SDS011;23834;48.080;11.682;2023-12-22T04:42:38;0.40;;;0.30;;
38023;SDS011;23834;48.080;11.682;2023-12-22T04:45:03;0.40;;;0.40;;
38023;SDS011;23834;48.080;11.682;2023-12-22T04:47:28;0.50;;;0.30;;
38023;SDS011;23834;48.080;11.682;2023-12-22T04:49:54;0.60;;;0.30;;
38023;SDS011;23834;48.080;11.682;2023-12-22T04:52:19;0.40;;;0.30;;
38023;SDS011;23834;48.080;11.682;2023-12-22T04:54:44;0.50;;;0.30;;
38023;SDS011;23834;48.080;11.682;2023-12-22T04:57:09;0.60;;;0.40;;
38023;SDS011;23834;48.080;11.682;2023-12-22T04:59:34;0.60;;;0.30;;
38023;SDS011;23834;48.080;11.682;2023-12-22T05:01:59;0.90;;;0.30;;
38023;SDS011;23834;48.080;11.682;2023-12-22T05:04:25;0.40;;;0.30;;
38023;SDS011;23834;48.080;11.682;2023-12-22T05:06:50;0.50;;;0.30;;
38023;SDS011;23834;48.080;11.682;2023-12-22T05:09:15;0.60;;;0.30;;
38023;SDS011;23834;48.080;11.682;2023-12-22T05:11:41;0.40;;;0.30;;
38023;SDS011;23834;48.080;11.682;2023-12-22T05:14:06;0.80;;;0.30;;
38023;SDS011;23834;48.080;11.682;2023-12-22T05:16:31;0.70;;;0.30;;
38023;SDS011;23834;48.080;11.682;2023-12-22T05:18:57;0.40;;;0.30;;
38023;SDS011;23834;48.080;11.682;2023-12-22T05:21:22;0.50;;;0.30;;
38023;SDS011;23834;48.080;11.682;2023-12-22T05:23:48;0.40;;;0.30;;
38023;SDS011;23834;48.080;11.682;2023-12-22T05:26:19;0.40;;;0.30;;
38023;SDS011;23834;48.080;11.682;2023-12-22T05:28:45;0.40;;;0.30;;
38023;SDS011;23834;48.080;11.682;2023-12-22T05:31:10;0.60;;;0.37;;
38023;SDS011;23834;48.080;11.682;2023-12-22T05:33:35;0.50;;;0.30;;
38023;SDS011;23834;48.080;11.682;2023-12-22T05:36:00;0.77;;;0.40;;
38023;SDS011;23834;48.080;11.682;2023-12-22T05:38:25;0.40;;;0.30;;
38023;SDS011;23834;48.080;11.682;2023-12-22T05:40:50;0.40;;;0.30;;
38023;SDS011;23834;48.080;11.682;2023-12-22T05:43:16;0.40;;;0.30;;
38023;SDS011;23834;48.080;11.682;2023-12-22T05:45:41;0.50;;;0.30;;
38023;SDS011;23834;48.080;11.682;2023-12-22T05:48:06;0.67;;;0.47;;
38023;SDS011;23834;48.080;11.682;2023-12-22T05:50:32;0.70;;;0.37;;
38023;SDS011;23834;48.080;11.682;2023-12-22T05:52:57;0.50;;;0.30;;
38023;SDS011;23834;48.080;11.682;2023-12-22T05:55:22;0.40;;;0.30;;
38023;SDS011;23834;48.080;11.682;2023-12-22T05:57:47;0.50;;;0.30;;
38023;SDS011;23834;48.080;11.682;2023-12-22T06:00:13;0.50;;;0.33;;
38023;SDS011;23834;48.080;11.682;2023-12-22T06:02:40;0.40;;;0.40;;
38023;SDS011;23834;48.080;11.682;2023-12-22T06:05:05;0.50;;;0.30;;
38023;SDS011;23834;48.080;11.682;2023-12-22T06:07:30;0.40;;;0.30;;
38023;SDS011;23834;48.080;11.682;2023-12-22T06:09:55;0.70;;;0.30;;
38023;SDS011;23834;48.080;11.682;2023-12-22T06:12:21;0.50;;;0.30;;
38023;SDS011;23834;48.080;11.682;2023-12-22T06:14:46;1.43;;;0.33;;
38023;SDS011;23834;48.080;11.682;2023-12-22T06:17:11;0.40;;;0.30;;
38023;SDS011;23834;48.080;11.682;2023-12-22T06:19:36;0.43;;;0.30;;
38023;SDS011;23834;48.080;11.682;2023-12-22T06:22:01;0.60;;;0.30;;
38023;SDS011;23834;48.080;11.682;2023-12-22T06:24:27;0.80;;;0.40;;
38023;SDS011;23834;48.080;11.682;2023-12-22T06:26:52;0.60;;;0.40;;
38023;SDS011;23834;48.080;11.682;2023-12-22T06:29:17;0.40;;;0.30;;
38023;SDS011;23834;48.080;11.682;2023-12-22T06:31:42;0.70;;;0.37;;
38023;SDS011;23834;48.080;11.682;2023-12-22T06:34:07;0.70;;;0.37;;
38023;SDS011;23834;48.080;11.682;2023-12-22T06:36:33;1.17;;;0.40;;
38023;SDS011;23834;48.080;11.682;2023-12-22T06:38:58;1.23;;;0.50;;
38023;SDS011;23834;48.080;11.682;2023-12-22T06:41:24;0.90;;;0.60;;
38023;SDS011;23834;48.080;11.682;2023-12-22T06:43:49;0.50;;;0.40;;
38023;SDS011;23834;48.080;11.682;2023-12-22T06:46:15;0.97;;;0.40;;
38023;SDS011;23834;48.080;11.682;2023-12-22T06:48:41;0.97;;;0.40;;
38023;SDS011;23834;48.080;11.682;2023-12-22T06:51:06;0.80;;;0.47;;
38023;SDS011;23834;48.080;11.682;2023-12-22T06:53:31;0.83;;;0.50;;
38023;SDS011;23834;48.080;11.682;2023-12-22T06:55:57;0.90;;;0.53;;
38023;SDS011;23834;48.080;11.682;2023-12-22T06:58:22;0.70;;;0.50;;
38023;SDS011;23834;48.080;11.682;2023-12-22T07:00:50;0.80;;;0.60;;
38023;SDS011;23834;48.080;11.682;2023-12-22T07:03:15;0.60;;;0.50;;
38023;SDS011;23834;48.080;11.682;2023-12-22T07:05:42;0.80;;;0.67;;
38023;SDS011;23834;48.080;11.682;2023-12-22T07:08:07;0.60;;;0.60;;
38023;SDS011;23834;48.080;11.682;2023-12-22T07:10:32;1.07;;;0.60;;
38023;SDS011;23834;48.080;11.682;2023-12-22T07:12:58;1.00;;;0.90;;
38023;SDS011;23834;48.080;11.682;2023-12-22T07:15:23;0.80;;;0.70;;
38023;SDS011;23834;48.080;11.682;2023-12-22T07:17:48;0.70;;;0.50;;
38023;SDS011;23834;48.080;11.682;2023-12-22T07:20:13;0.87;;;0.70;;
38023;SDS011;23834;48.080;11.682;2023-12-22T07:22:38;0.60;;;0.60;;
38023;SDS011;23834;48.080;11.682;2023-12-22T07:25:04;0.60;;;0.60;;
38023;SDS011;23834;48.080;11.682;2023-12-22T07:27:30;1.30;;;0.87;;
38023;SDS011;23834;48.080;11.682;2023-12-22T07:29:55;1.53;;;0.70;;
38023;SDS011;23834;48.080;11.682;2023-12-22T07:32:20;1.30;;;0.70;;
38023;SDS011;23834;48.080;11.682;2023-12-22T07:34:45;1.20;;;0.93;;
38023;SDS011;23834;48.080;11.682;2023-12-22T07:37:10;0.80;;;0.70;;
38023;SDS011;23834;48.080;11.682;2023-12-22T07:39:35;0.70;;;0.70;;
38023;SDS011;23834;48.080;11.682;2023-12-22T07:42:01;1.67;;;0.80;;
38023;SDS011;23834;48.080;11.682;2023-12-22T07:44:26;0.90;;;0.90;;
38023;SDS011;23834;48.080;11.682;2023-12-22T07:46:57;0.70;;;0.70;;
38023;SDS011;23834;48.080;11.682;2023-12-22T07:49:23;1.10;;;0.70;;
38023;SDS011;23834;48.080;11.682;2023-12-22T07:51:48;0.70;;;0.50;;
38023;SDS011;23834;48.080;11.682;2023-12-22T07:54:16;1.33;;;0.70;;
38023;SDS011;23834;48.080;11.682;2023-12-22T07:56:42;1.20;;;0.80;;
38023;SDS011;23834;48.080;11.682;2023-12-22T07:59:07;0.90;;;0.60;;
38023;SDS011;23834;48.080;11.682;2023-12-22T08:01:33;0.90;;;0.70;;
38023;SDS011;23834;48.080;11.682;2023-12-22T08:03:58;1.23;;;0.60;;
38023;SDS011;23834;48.080;11.682;2023-12-22T08:06:23;0.80;;;0.70;;
38023;SDS011;23834;48.080;11.682;2023-12-22T08:08:49;0.70;;;0.70;;
38023;SDS011;23834;48.080;11.682;2023-12-22T08:11:14;1.20;;;0.60;;
38023;SDS011;23834;48.080;11.682;2023-12-22T08:13:39;1.23;;;0.80;;
38023;SDS011;23834;48.080;11.682;2023-12-22T08:16:05;0.70;;;0.60;;
38023;SDS011;23834;48.080;11.682;2023-12-22T08:18:30;1.37;;;0.73;;
38023;SDS011;23834;48.080;11.682;2023-12-22T08:20:56;0.80;;;0.53;;
38023;SDS011;23834;48.080;11.682;2023-12-22T08:23:21;0.70;;;0.50;;
38023;SDS011;23834;48.080;11.682;2023-12-22T08:25:46;0.80;;;0.70;;
38023;SDS011;23834;48.080;11.682;2023-12-22T08:28:12;0.80;;;0.57;;
38023;SDS011;23834;48.080;11.682;2023-12-22T08:30:38;1.37;;;0.67;;
38023;SDS011;23834;48.080;11.682;2023-12-22T08:33:03;1.10;;;0.80;;
38023;SDS011;23834;48.080;11.682;2023-12-22T08:35:28;0.93;;;0.77;;
38023;SDS011;23834;48.080;11.682;2023-12-22T08:37:54;0.97;;;0.70;;
38023;SDS011;23834;48.080;11.682;2023-12-22T08:40:19;0.70;;;0.70;;
38023;SDS011;23834;48.080;11.682;2023-12-22T08:42:50;1.80;;;0.73;;
38023;SDS011;23834;48.080;11.682;2023-12-22T08:45:15;1.00;;;0.73;;
38023;SDS011;23834;48.080;11.682;2023-12-22T08:47:40;0.80;;;0.70;;
38023;SDS011;23834;48.080;11.682;2023-12-22T08:50:06;0.67;;;0.53;;
38023;SDS011;23834;48.080;11.682;2023-12-22T08:52:32;1.10;;;0.70;;
38023;SDS011;23834;48.080;11.682;2023-12-22T08:54:58;1.70;;;0.70;;
38023;SDS011;23834;48.080;11.682;2023-12-22T08:57:23;0.60;;;0.60;;
38023;SDS011;23834;48.080;11.682;2023-12-22T08:59:49;0.60;;;0.50;;
38023;SDS011;23834;48.080;11.682;2023-12-22T09:02:14;0.90;;;0.70;;
38023;SDS011;23834;48.080;11.682;2023-12-22T09:04:39;0.60;;;0.50;;
38023;SDS011;23834;48.080;11.682;2023-12-22T09:07:04;1.00;;;0.70;;
38023;SDS011;23834;48.080;11.682;2023-12-22T09:09:29;0.80;;;0.70;;
38023;SDS011;23834;48.080;11.682;2023-12-22T09:11:54;1.83;;;0.70;;
38023;SDS011;23834;48.080;11.682;2023-12-22T09:14:20;0.73;;;0.73;;
38023;SDS011;23834;48.080;11.682;2023-12-22T09:16:45;1.13;;;0.57;;
38023;SDS011;23834;48.080;11.682;2023-12-22T09:19:11;0.70;;;0.70;;
38023;SDS011;23834;48.080;11.682;2023-12-22T09:21:36;0.60;;;0.60;;
38023;SDS011;23834;48.080;11.682;2023-12-22T09:24:01;1.03;;;0.93;;
38023;SDS011;23834;48.080;11.682;2023-12-22T09:26:26;0.93;;;0.70;;
38023;SDS011;23834;48.080;11.682;2023-12-22T09:28:52;0.77;;;0.73;;
38023;SDS011;23834;48.080;11.682;2023-12-22T09:31:18;0.90;;;0.77;;
38023;SDS011;23834;48.080;11.682;2023-12-22T09:33:43;0.70;;;0.60;;
38023;SDS011;23834;48.080;11.682;2023-12-22T09:36:08;0.80;;;0.77;;
38023;SDS011;23834;48.080;11.682;2023-12-22T09:38:33;1.00;;;0.70;;
38023;SDS011;23834;48.080;11.682;2023-12-22T09:40:58;1.47;;;0.80;;
38023;SDS011;23834;48.080;11.682;2023-12-22T09:43:24;1.00;;;0.80;;
38023;SDS011;23834;48.080;11.682;2023-12-22T09:45:50;0.70;;;0.70;;
38023;SDS011;23834;48.080;11.682;2023-12-22T09:48:17;0.80;;;0.70;;
38023;SDS011;23834;48.080;11.682;2023-12-22T09:50:43;1.10;;;1.00;;
38023;SDS011;23834;48.080;11.682;2023-12-22T09:53:08;0.77;;;0.77;;
38023;SDS011;23834;48.080;11.682;2023-12-22T09:55:34;1.07;;;0.73;;
38023;SDS011;23834;48.080;11.682;2023-12-22T09:57:59;0.87;;;0.80;;
38023;SDS011;23834;48.080;11.682;2023-12-22T10:00:25;1.70;;;0.70;;
38023;SDS011;23834;48.080;11.682;2023-12-22T10:02:53;0.80;;;0.80;;
38023;SDS011;23834;48.080;11.682;2023-12-22T10:05:18;0.93;;;0.83;;
38023;SDS011;23834;48.080;11.682;2023-12-22T10:07:44;1.13;;;0.80;;
38023;SDS011;23834;48.080;11.682;2023-12-22T10:10:09;0.90;;;0.80;;
38023;SDS011;23834;48.080;11.682;2023-12-22T10:12:35;1.03;;;0.93;;
38023;SDS011;23834;48.080;11.682;2023-12-22T10:15:01;0.60;;;0.60;;
38023;SDS011;23834;48.080;11.682;2023-12-22T10:17:28;1.03;;;0.90;;
38023;SDS011;23834;48.080;11.682;2023-12-22T10:19:54;0.60;;;0.60;;
38023;SDS011;23834;48.080;11.682;2023-12-22T10:22:19;0.90;;;0.70;;
38023;SDS011;23834;48.080;11.682;2023-12-22T10:24:46;0.90;;;0.80;;
38023;SDS011;23834;48.080;11.682;2023-12-22T10:27:16;1.13;;;0.80;;
38023;SDS011;23834;48.080;11.682;2023-12-22T10:29:47;0.70;;;0.67;;
38023;SDS011;23834;48.080;11.682;2023-12-22T10:32:12;1.10;;;0.80;;
38023;SDS011;23834;48.080;11.682;2023-12-22T10:34:38;0.70;;;0.70;;
38023;SDS011;23834;48.080;11.682;2023-12-22T10:37:04;0.83;;;0.80;;
38023;SDS011;23834;48.080;11.682;2023-12-22T10:39:29;1.07;;;0.80;;
38023;SDS011;23834;48.080;11.682;2023-12-22T10:41:55;1.17;;;0.70;;
38023;SDS011;23834;48.080;11.682;2023-12-22T10:44:23;0.80;;;0.80;;
38023;SDS011;23834;48.080;11.682;2023-12-22T10:46:48;0.80;;;0.70;;
38023;SDS011;23834;48.080;11.682;2023-12-22T10:49:14;1.00;;;0.90;;
38023;SDS011;23834;48.080;11.682;2023-12-22T10:51:39;1.00;;;0.83;;
38023;SDS011;23834;48.080;11.682;2023-12-22T10:54:04;0.70;;;0.63;;
38023;SDS011;23834;48.080;11.682;2023-12-22T10:56:30;0.70;;;0.70;;
38023;SDS011;23834;48.080;11.682;2023-12-22T10:58:56;1.07;;;0.80;;
38023;SDS011;23834;48.080;11.682;2023-12-22T11:01:21;1.13;;;0.83;;
38023;SDS011;23834;48.080;11.682;2023-12-22T11:03:50;1.23;;;1.13;;
38023;SDS011;23834;48.080;11.682;2023-12-22T11:06:15;0.90;;;0.70;;
38023;SDS011;23834;48.080;11.682;2023-12-22T11:08:41;0.90;;;0.90;;
38023;SDS011;23834;48.080;11.682;2023-12-22T11:11:13;1.07;;;0.80;;
38023;SDS011;23834;48.080;11.682;2023-12-22T11:13:40;1.80;;;1.10;;
38023;SDS011;23834;48.080;11.682;2023-12-22T11:16:07;3.10;;;0.97;;
38023;SDS011;23834;48.080;11.682;2023-12-22T11:18:33;2.00;;;1.07;;
38023;SDS011;23834;48.080;11.682;2023-12-22T11:21:00;0.80;;;0.70;;
38023;SDS011;23834;48.080;11.682;2023-12-22T11:23:27;0.83;;;0.70;;
38023;SDS011;23834;48.080;11.682;2023-12-22T11:25:54;1.33;;;0.60;;
38023;SDS011;23834;48.080;11.682;2023-12-22T11:28:19;0.90;;;0.80;;
38023;SDS011;23834;48.080;11.682;2023-12-22T11:30:46;1.33;;;0.77;;
38023;SDS011;23834;48.080;11.682;2023-12-22T11:33:11;1.03;;;0.93;;
38023;SDS011;23834;48.080;11.682;2023-12-22T11:35:37;1.10;;;0.80;;
38023;SDS011;23834;48.080;11.682;2023-12-22T11:38:03;1.23;;;0.80;;
38023;SDS011;23834;48.080;11.682;2023-12-22T11:40:30;0.70;;;0.60;;
38023;SDS011;23834;48.080;11.682;2023-12-22T11:42:55;0.80;;;0.80;;
38023;SDS011;23834;48.080;11.682;2023-12-22T11:45:20;0.93;;;0.83;;
38023;SDS011;23834;48.080;11.682;2023-12-22T11:47:47;1.60;;;1.00;;
38023;SDS011;23834;48.080;11.682;2023-12-22T11:50:13;1.20;;;0.80;;
38023;SDS011;23834;48.080;11.682;2023-12-22T11:52:52;0.80;;;0.80;;
38023;SDS011;23834;48.080;11.682;2023-12-22T11:55:17;1.07;;;0.80;;
38023;SDS011;23834;48.080;11.682;2023-12-22T12:00:47;1.07;;;0.70;;
38023;SDS011;23834;48.080;11.682;2023-12-22T12:03:17;1.03;;;1.00;;
38023;SDS011;23834;48.080;11.682;2023-12-22T12:05:43;1.50;;;1.10;;
38023;SDS011;23834;48.080;11.682;2023-12-22T12:08:08;1.27;;;0.70;;
38023;SDS011;23834;48.080;11.682;2023-12-22T12:15:30;0.70;;;0.70;;
38023;SDS011;23834;48.080;11.682;2023-12-22T12:17:58;2.50;;;0.87;;
38023;SDS011;23834;48.080;11.682;2023-12-22T12:20:23;1.30;;;0.93;;
38023;SDS011;23834;48.080;11.682;2023-12-22T12:22:48;0.80;;;0.80;;
38023;SDS011;23834;48.080;11.682;2023-12-22T12:25:13;1.53;;;0.87;;
38023;SDS011;23834;48.080;11.682;2023-12-22T12:27:38;0.73;;;0.73;;
38023;SDS011;23834;48.080;11.682;2023-12-22T12:30:08;0.90;;;0.80;;
38023;SDS011;23834;48.080;11.682;2023-12-22T12:32:35;0.70;;;0.70;;
38023;SDS011;23834;48.080;11.682;2023-12-22T12:35:01;0.90;;;0.60;;
38023;SDS011;23834;48.080;11.682;2023-12-22T12:37:26;1.00;;;0.63;;
38023;SDS011;23834;48.080;11.682;2023-12-22T12:39:52;1.23;;;1.00;;
38023;SDS011;23834;48.080;11.682;2023-12-22T12:42:19;0.60;;;0.60;;
38023;SDS011;23834;48.080;11.682;2023-12-22T12:44:47;0.90;;;0.90;;
38023;SDS011;23834;48.080;11.682;2023-12-22T12:47:14;1.00;;;0.70;;
38023;SDS011;23834;48.080;11.682;2023-12-22T12:49:40;0.60;;;0.60;;
38023;SDS011;23834;48.080;11.682;2023-12-22T12:52:05;0.90;;;0.77;;
38023;SDS011;23834;48.080;11.682;2023-12-22T12:54:31;0.80;;;0.70;;
38023;SDS011;23834;48.080;11.682;2023-12-22T12:56:56;1.00;;;0.60;;
38023;SDS011;23834;48.080;11.682;2023-12-22T12:59:21;1.17;;;0.73;;
38023;SDS011;23834;48.080;11.682;2023-12-22T13:01:47;0.90;;;0.70;;
38023;SDS011;23834;48.080;11.682;2023-12-22T13:04:13;0.80;;;0.70;;
38023;SDS011;23834;48.080;11.682;2023-12-22T13:09:09;1.17;;;0.80;;
38023;SDS011;23834;48.080;11.682;2023-12-22T13:11:34;0.73;;;0.60;;
38023;SDS011;23834;48.080;11.682;2023-12-22T13:14:01;0.70;;;0.70;;
38023;SDS011;23834;48.080;11.682;2023-12-22T13:16:27;0.70;;;0.70;;
38023;SDS011;23834;48.080;11.682;2023-12-22T13:18:54;0.60;;;0.60;;
38023;SDS011;23834;48.080;11.682;2023-12-22T13:21:19;0.73;;;0.73;;
38023;SDS011;23834;48.080;11.682;2023-12-22T13:23:46;0.70;;;0.70;;
38023;SDS011;23834;48.080;11.682;2023-12-22T13:26:17;0.87;;;0.80;;
38023;SDS011;23834;48.080;11.682;2023-12-22T13:28:42;0.60;;;0.60;;
38023;SDS011;23834;48.080;11.682;2023-12-22T13:31:10;0.67;;;0.67;;
38023;SDS011;23834;48.080;11.682;2023-12-22T13:33:35;0.50;;;0.50;;
38023;SDS011;23834;48.080;11.682;2023-12-22T13:36:00;0.90;;;0.70;;
38023;SDS011;23834;48.080;11.682;2023-12-22T13:38:25;1.37;;;0.60;;
38023;SDS011;23834;48.080;11.682;2023-12-22T13:40:51;0.70;;;0.67;;
38023;SDS011;23834;48.080;11.682;2023-12-22T13:43:16;0.83;;;0.60;;
38023;SDS011;23834;48.080;11.682;2023-12-22T13:45:41;1.17;;;0.70;;
38023;SDS011;23834;48.080;11.682;2023-12-22T13:48:06;0.60;;;0.60;;
38023;SDS011;23834;48.080;11.682;2023-12-22T13:50:32;0.80;;;0.50;;
38023;SDS011;23834;48.080;11.682;2023-12-22T13:53:07;0.70;;;0.70;;
38023;SDS011;23834;48.080;11.682;2023-12-22T13:55:32;0.73;;;0.50;;
38023;SDS011;23834;48.080;11.682;2023-12-22T13:58:02;0.60;;;0.50;;
38023;SDS011;23834;48.080;11.682;2023-12-22T14:00:28;0.80;;;0.50;;
38023;SDS011;23834;48.080;11.682;2023-12-22T14:02:54;0.77;;;0.70;;
38023;SDS011;23834;48.080;11.682;2023-12-22T14:05:19;0.60;;;0.50;;
38023;SDS011;23834;48.080;11.682;2023-12-22T14:07:45;0.80;;;0.63;;
38023;SDS011;23834;48.080;11.682;2023-12-22T14:10:10;0.77;;;0.63;;
38023;SDS011;23834;48.080;11.682;2023-12-22T14:12:36;0.60;;;0.60;;
38023;SDS011;23834;48.080;11.682;2023-12-22T14:15:03;0.80;;;0.70;;
38023;SDS011;23834;48.080;11.682;2023-12-22T14:17:28;0.63;;;0.63;;
38023;SDS011;23834;48.080;11.682;2023-12-22T14:19:53;0.50;;;0.50;;
38023;SDS011;23834;48.080;11.682;2023-12-22T14:22:18;0.70;;;0.67;;
38023;SDS011;23834;48.080;11.682;2023-12-22T14:24:43;1.03;;;0.73;;
38023;SDS011;23834;48.080;11.682;2023-12-22T14:27:09;0.83;;;0.80;;
38023;SDS011;23834;48.080;11.682;2023-12-22T14:29:35;0.70;;;0.60;;
38023;SDS011;23834;48.080;11.682;2023-12-22T14:32:05;0.50;;;0.50;;
38023;SDS011;23834;48.080;11.682;2023-12-22T14:34:33;0.60;;;0.60;;
38023;SDS011;23834;48.080;11.682;2023-12-22T14:36:58;0.60;;;0.60;;